Time;durP1;ratioP1;P1;durP2;ratioP2;P2;SDS_P1;SDS_P2;PMS_P1;PMS_P2;Temp;Humidity;BMP_temperature;BMP_pressure;BME280_temperature;BME280_humidity;BME280_pressure;Samples;Min_cycle;Max_cycle;Signal;HPM_P1;HPM_P2
2021/09/02 00:01:03;;;;;;;4.15;1.75;;;16.90;99.90;;;;;;4999535;28;20473;-68
2021/09/02 00:03:28;;;;;;;4.38;1.65;;;16.80;99.90;;;;;;5002766;28;20556;-68
2021/09/02 00:05:54;;;;;;;3.38;1.30;;;16.80;99.90;;;;;;4982417;28;20033;-68
2021/09/02 00:08:19;;;;;;;4.85;1.52;;;16.80;99.90;;;;;;5001418;28;20372;-68
2021/09/02 00:10:45;;;;;;;2.10;1.17;;;16.80;99.90;;;;;;5000432;28;20425;-68
2021/09/02 00:13:10;;;;;;;3.80;1.15;;;16.80;99.90;;;;;;5000563;28;20128;-68
2021/09/02 00:15:36;;;;;;;2.90;1.40;;;16.80;99.90;;;;;;5002781;28;20030;-68
2021/09/02 00:18:02;;;;;;;4.85;1.25;;;16.80;99.90;;;;;;4999185;28;20450;-69
2021/09/02 00:20:28;;;;;;;5.45;1.42;;;16.80;99.90;;;;;;5002233;28;20045;-68
2021/09/02 00:22:54;;;;;;;4.82;1.60;;;16.80;99.90;;;;;;5000042;28;20030;-68
2021/09/02 00:25:19;;;;;;;4.22;1.30;;;16.80;99.90;;;;;;5000667;28;20039;-68
2021/09/02 00:27:45;;;;;;;3.83;1.65;;;16.80;99.90;;;;;;5000978;28;20037;-68
2021/09/02 00:30:11;;;;;;;4.57;1.83;;;16.70;99.90;;;;;;5000191;28;20559;-68
2021/09/02 00:32:37;;;;;;;4.35;1.80;;;16.80;99.90;;;;;;5002568;28;20137;-68
2021/09/02 00:35:03;;;;;;;3.70;1.60;;;16.80;99.90;;;;;;4998815;28;20034;-68
2021/09/02 00:37:29;;;;;;;4.00;1.70;;;16.70;99.90;;;;;;4984453;28;20034;-68
2021/09/02 00:39:54;;;;;;;5.93;1.38;;;16.70;99.90;;;;;;5000219;28;20092;-69
2021/09/02 00:42:20;;;;;;;3.80;1.50;;;16.70;99.90;;;;;;5001190;28;20094;-68
2021/09/02 00:44:47;;;;;;;4.75;1.40;;;16.70;99.90;;;;;;5000229;28;20030;-68
2021/09/02 00:47:16;;;;;;;3.25;1.20;;;16.70;99.90;;;;;;4999424;28;20037;-69
2021/09/02 00:49:43;;;;;;;3.58;1.50;;;16.70;99.90;;;;;;5001199;28;20583;-69
2021/09/02 00:52:26;;;;;;;3.50;1.45;;;16.70;99.90;;;;;;4998963;28;20116;-69
2021/09/02 00:54:54;;;;;;;2.03;1.30;;;16.60;99.90;;;;;;4998949;28;20154;-68
2021/09/02 00:57:25;;;;;;;7.00;1.52;;;16.60;99.90;;;;;;5000845;28;20108;-68
2021/09/02 00:59:56;;;;;;;4.05;1.20;;;16.60;99.90;;;;;;5005373;28;20045;-68
2021/09/02 01:02:25;;;;;;;;;;;16.60;99.90;;;;;;5001805;28;20117;-68
2021/09/02 01:04:56;;;;;;;3.10;1.30;;;16.60;99.90;;;;;;4981296;28;19959;-69
2021/09/02 01:07:26;;;;;;;3.72;1.98;;;16.60;99.90;;;;;;5001134;28;20495;-68
2021/09/02 01:09:57;;;;;;;5.10;1.48;;;16.60;99.90;;;;;;4981782;28;20117;-68
2021/09/02 01:12:44;;;;;;;4.18;1.83;;;16.60;99.90;;;;;;5001163;28;20071;-69
2021/09/02 01:15:12;;;;;;;4.95;1.40;;;16.60;99.90;;;;;;4999095;28;20030;-69
2021/09/02 01:17:40;;;;;;;5.82;1.52;;;16.60;99.90;;;;;;5001423;28;20663;-68
2021/09/02 01:20:08;;;;;;;4.95;1.15;;;16.60;99.90;;;;;;4998839;28;20038;-68
2021/09/02 01:22:34;;;;;;;3.03;1.50;;;16.60;99.90;;;;;;5001710;28;20486;-68
2021/09/02 01:25:02;;;;;;;3.90;1.23;;;16.60;99.90;;;;;;4998098;28;20117;-69
2021/09/02 01:27:28;;;;;;;4.00;1.60;;;16.60;99.90;;;;;;4998582;28;20410;-68
2021/09/02 01:29:56;;;;;;;3.78;1.60;;;16.60;99.90;;;;;;4983907;28;20033;-68
2021/09/02 01:32:24;;;;;;;3.40;1.00;;;16.60;99.90;;;;;;4999560;28;20040;-68
2021/09/02 01:34:54;;;;;;;5.88;1.35;;;16.50;99.90;;;;;;5002802;28;20125;-68
2021/09/02 01:37:19;;;;;;;4.45;1.48;;;16.60;99.90;;;;;;5000858;28;20106;-68
2021/09/02 01:39:48;;;;;;;4.40;1.17;;;16.50;99.90;;;;;;5000554;28;20037;-68
2021/09/02 01:42:14;;;;;;;2.63;1.42;;;16.50;99.90;;;;;;4999569;28;20042;-69
2021/09/02 01:44:39;;;;;;;3.08;1.17;;;16.60;99.90;;;;;;5000940;28;20512;-69
2021/09/02 01:47:19;;;;;;;3.10;1.67;;;16.60;99.90;;;;;;4998693;28;20126;-68
2021/09/02 01:49:45;;;;;;;2.47;1.17;;;16.60;99.90;;;;;;5000355;28;20172;-68
2021/09/02 01:52:11;;;;;;;4.47;1.40;;;16.60;99.90;;;;;;4999696;28;20137;-69
2021/09/02 01:54:37;;;;;;;4.13;0.98;;;16.50;99.90;;;;;;4983453;28;20134;-68
2021/09/02 01:57:06;;;;;;;2.50;1.23;;;16.50;99.90;;;;;;4998211;28;20034;-68
2021/09/02 01:59:31;;;;;;;3.20;1.20;;;16.60;99.90;;;;;;5006767;28;20486;-68
2021/09/02 02:01:57;;;;;;;4.80;1.05;;;16.60;99.90;;;;;;4998901;28;20043;-68
2021/09/02 02:04:22;;;;;;;2.33;1.30;;;16.50;99.90;;;;;;5000953;28;20478;-68
2021/09/02 02:06:48;;;;;;;3.40;1.40;;;16.60;99.90;;;;;;4998986;28;20033;-69
2021/09/02 02:09:14;;;;;;;7.40;1.45;;;16.60;99.90;;;;;;4999142;28;20145;-69
2021/09/02 02:11:40;;;;;;;3.75;1.30;;;16.60;99.90;;;;;;5000434;28;20036;-68
2021/09/02 02:14:06;;;;;;;2.40;1.08;;;16.60;99.90;;;;;;4999837;28;20030;-68
2021/09/02 02:16:31;;;;;;;3.58;1.10;;;16.60;99.90;;;;;;4998056;28;20081;-69
2021/09/02 02:18:57;;;;;;;2.47;1.20;;;16.50;99.90;;;;;;5001677;28;20038;-68
2021/09/02 02:21:22;;;;;;;2.70;1.00;;;16.50;99.90;;;;;;4998183;28;20042;-69
2021/09/02 02:23:48;;;;;;;2.33;1.10;;;16.50;99.90;;;;;;5000533;28;20069;-69
2021/09/02 02:26:14;;;;;;;2.45;1.08;;;16.50;99.90;;;;;;4981008;28;20054;-69
2021/09/02 02:28:39;;;;;;;1.92;1.02;;;16.50;99.90;;;;;;4999613;28;20495;-68
2021/09/02 02:31:05;;;;;;;2.55;0.93;;;16.50;99.90;;;;;;5000463;28;20045;-68
2021/09/02 02:33:30;;;;;;;4.47;1.58;;;16.50;99.90;;;;;;4999136;28;20047;-68
2021/09/02 02:35:56;;;;;;;3.90;1.50;;;16.50;99.90;;;;;;5004439;28;20034;-69
2021/09/02 02:38:21;;;;;;;2.58;1.20;;;16.50;99.90;;;;;;5001237;28;20076;-68
2021/09/02 02:40:47;;;;;;;5.05;1.33;;;16.50;99.90;;;;;;5011249;28;20042;-69
2021/09/02 02:43:13;;;;;;;3.70;1.17;;;16.50;99.90;;;;;;4985036;28;20042;-68
2021/09/02 02:45:39;;;;;;;4.68;1.00;;;16.50;99.90;;;;;;5003066;28;20042;-69
2021/09/02 02:48:05;;;;;;;4.72;1.55;;;16.50;99.90;;;;;;5003706;28;20033;-69
2021/09/02 02:50:31;;;;;;;2.03;1.13;;;16.50;99.90;;;;;;4983828;28;20038;-69
2021/09/02 02:52:57;;;;;;;6.25;1.20;;;16.50;99.90;;;;;;5004783;28;20048;-69
2021/09/02 02:55:22;;;;;;;3.30;1.40;;;16.50;99.90;;;;;;5000399;28;20027;-68
2021/09/02 02:57:48;;;;;;;3.30;1.15;;;16.50;99.90;;;;;;5004757;28;20041;-68
2021/09/02 03:00:14;;;;;;;3.83;1.60;;;16.50;99.90;;;;;;5005477;28;20049;-68
2021/09/02 03:02:39;;;;;;;2.85;1.23;;;16.40;99.90;;;;;;5002329;28;20030;-68
2021/09/02 03:05:07;;;;;;;2.80;0.93;;;16.50;99.90;;;;;;5002053;28;20039;-68
2021/09/02 03:07:34;;;;;;;3.47;1.27;;;16.40;99.90;;;;;;5002771;28;21160;-69
2021/09/02 03:10:00;;;;;;;1.98;1.10;;;16.50;99.90;;;;;;5001424;28;20038;-68
2021/09/02 03:12:25;;;;;;;2.60;1.35;;;16.40;99.90;;;;;;5003416;28;20432;-69
2021/09/02 03:14:51;;;;;;;3.53;1.27;;;16.40;99.90;;;;;;4983401;28;20041;-69
2021/09/02 03:17:16;;;;;;;2.53;1.30;;;16.40;99.90;;;;;;5002835;28;20029;-69
2021/09/02 03:19:42;;;;;;;3.40;1.50;;;16.40;99.90;;;;;;5002315;28;20398;-68
2021/09/02 03:22:08;;;;;;;3.53;1.30;;;16.40;99.90;;;;;;5001755;28;20047;-69
2021/09/02 03:24:33;;;;;;;2.72;1.65;;;16.40;99.90;;;;;;4984898;28;20072;-68
2021/09/02 03:26:59;;;;;;;4.82;1.33;;;16.40;99.90;;;;;;5000148;28;20038;-68
2021/09/02 03:29:24;;;;;;;3.55;1.30;;;16.40;99.90;;;;;;5003760;28;20037;-69
2021/09/02 03:31:50;;;;;;;4.43;1.50;;;16.40;99.90;;;;;;5000760;28;20030;-68
2021/09/02 03:34:16;;;;;;;3.90;1.65;;;16.40;99.90;;;;;;5003849;28;20394;-68
2021/09/02 03:36:45;;;;;;;4.30;1.50;;;16.40;99.90;;;;;;5001305;28;20030;-68
2021/09/02 03:39:10;;;;;;;4.18;1.73;;;16.40;99.90;;;;;;5003551;28;20035;-69
2021/09/02 03:41:36;;;;;;;3.33;1.40;;;16.30;99.90;;;;;;5005642;28;20037;-68
2021/09/02 03:44:01;;;;;;;6.68;1.90;;;16.30;99.90;;;;;;4985116;28;20053;-68
2021/09/02 03:46:27;;;;;;;3.47;1.30;;;16.40;99.90;;;;;;4999723;28;20041;-68
2021/09/02 03:48:53;;;;;;;3.67;1.30;;;16.30;99.90;;;;;;4986114;28;20546;-68
2021/09/02 03:51:18;;;;;;;4.05;1.60;;;16.30;99.90;;;;;;5000915;28;20117;-68
2021/09/02 03:53:44;;;;;;;4.68;1.35;;;16.30;99.90;;;;;;5002538;28;20560;-68
2021/09/02 03:56:09;;;;;;;3.78;1.30;;;16.30;99.90;;;;;;5001144;28;20457;-68
2021/09/02 03:58:35;;;;;;;4.18;1.40;;;16.30;99.90;;;;;;5005450;28;20125;-68
2021/09/02 04:01:00;;;;;;;2.92;1.40;;;16.30;99.90;;;;;;5001127;28;20096;-68
2021/09/02 04:03:26;;;;;;;3.53;1.80;;;16.30;99.90;;;;;;5002708;28;20030;-68
2021/09/02 04:05:51;;;;;;;3.13;1.60;;;16.20;99.90;;;;;;4982365;28;20042;-68
2021/09/02 04:08:17;;;;;;;5.75;1.30;;;16.30;99.90;;;;;;5002907;28;20215;-69
2021/09/02 04:10:42;;;;;;;2.90;1.30;;;16.30;99.90;;;;;;5000329;28;20105;-68
2021/09/02 04:13:08;;;;;;;2.72;1.27;;;16.30;99.90;;;;;;4984578;28;20054;-68
2021/09/02 04:15:33;;;;;;;4.07;1.70;;;16.30;99.90;;;;;;5000825;28;20032;-69
2021/09/02 04:17:59;;;;;;;4.13;1.23;;;16.20;99.90;;;;;;5000632;28;20050;-68
2021/09/02 04:20:25;;;;;;;5.47;1.40;;;16.20;99.90;;;;;;4985087;28;20092;-68
2021/09/02 04:22:50;;;;;;;4.32;1.15;;;16.30;99.90;;;;;;4999270;28;20041;-68
2021/09/02 04:25:16;;;;;;;3.33;1.20;;;16.30;99.90;;;;;;5001888;28;20353;-68
2021/09/02 04:27:41;;;;;;;3.28;1.45;;;16.20;99.90;;;;;;4999983;28;20039;-68
2021/09/02 04:30:07;;;;;;;2.80;1.35;;;16.30;99.90;;;;;;5002158;28;20137;-69
2021/09/02 04:32:33;;;;;;;5.85;1.80;;;16.20;99.90;;;;;;5001035;28;20030;-68
2021/09/02 04:34:58;;;;;;;6.38;1.42;;;16.20;99.90;;;;;;5000105;28;20045;-68
2021/09/02 04:37:24;;;;;;;5.05;1.30;;;16.20;99.90;;;;;;4984499;28;20036;-68
2021/09/02 04:39:50;;;;;;;7.97;2.03;;;16.20;99.90;;;;;;4988045;28;20165;-68
2021/09/02 04:42:15;;;;;;;4.68;1.10;;;16.10;99.90;;;;;;4999544;28;20038;-68
2021/09/02 04:44:41;;;;;;;7.28;1.90;;;16.20;99.90;;;;;;5001461;28;20120;-68
2021/09/02 04:47:06;;;;;;;7.78;1.73;;;16.10;99.90;;;;;;5000417;28;20115;-68
2021/09/02 04:49:32;;;;;;;6.20;1.55;;;16.10;99.90;;;;;;5000772;28;20085;-68
2021/09/02 04:51:57;;;;;;;4.63;1.60;;;16.10;99.90;;;;;;5000908;28;20037;-68
2021/09/02 04:54:23;;;;;;;5.13;1.30;;;16.10;99.90;;;;;;4999562;28;20114;-68
2021/09/02 04:56:48;;;;;;;5.00;1.98;;;16.10;99.90;;;;;;5001647;28;20490;-68
2021/09/02 04:59:14;;;;;;;7.05;1.90;;;16.10;99.90;;;;;;5003298;28;20036;-68
2021/09/02 05:01:40;;;;;;;4.13;1.70;;;16.10;99.90;;;;;;4998981;28;20045;-68
2021/09/02 05:04:05;;;;;;;5.40;1.83;;;16.10;99.90;;;;;;4983364;28;20030;-68
2021/09/02 05:06:31;;;;;;;4.00;1.50;;;16.10;99.90;;;;;;5000049;28;20057;-68
2021/09/02 05:08:56;;;;;;;3.53;1.52;;;16.10;99.90;;;;;;4999229;28;20038;-68
2021/09/02 05:11:22;;;;;;;6.45;1.65;;;16.10;99.90;;;;;;5001587;28;20129;-68
2021/09/02 05:13:47;;;;;;;2.75;1.40;;;16.00;99.90;;;;;;4998360;28;20042;-68
2021/09/02 05:16:13;;;;;;;5.72;1.60;;;16.10;99.90;;;;;;5001479;28;20076;-69
2021/09/02 05:18:38;;;;;;;3.13;1.58;;;16.10;99.90;;;;;;4982299;28;20042;-68
2021/09/02 05:21:04;;;;;;;3.45;1.33;;;16.10;99.90;;;;;;4999728;28;20621;-68
2021/09/02 05:23:29;;;;;;;4.22;1.80;;;16.10;99.90;;;;;;5000938;28;20701;-68
2021/09/02 05:25:55;;;;;;;5.40;1.70;;;16.10;99.90;;;;;;4997868;28;20042;-68
2021/09/02 05:28:21;;;;;;;6.05;1.88;;;16.10;99.90;;;;;;5002045;28;20030;-68
2021/09/02 05:30:46;;;;;;;4.72;1.50;;;16.20;99.90;;;;;;4998545;28;20089;-68
2021/09/02 05:33:12;;;;;;;8.63;1.90;;;16.20;99.90;;;;;;5002209;28;20034;-69
2021/09/02 05:35:37;;;;;;;3.88;1.30;;;16.20;99.90;;;;;;4999064;28;20045;-68
2021/09/02 05:38:03;;;;;;;5.88;1.60;;;16.20;99.90;;;;;;5000810;28;20487;-68
2021/09/02 05:40:28;;;;;;;7.78;1.80;;;16.20;99.90;;;;;;5004463;28;20387;-69
2021/09/02 05:42:54;;;;;;;7.30;1.33;;;16.20;99.90;;;;;;5001323;28;20046;-68
2021/09/02 05:45:19;;;;;;;3.72;1.60;;;16.20;99.90;;;;;;4998875;28;20042;-68
2021/09/02 05:47:45;;;;;;;5.00;2.08;;;16.30;99.90;;;;;;5002180;28;20026;-70
2021/09/02 05:50:11;;;;;;;4.63;1.92;;;16.30;99.90;;;;;;4998318;28;20030;-68
2021/09/02 05:52:36;;;;;;;4.65;2.20;;;16.30;99.90;;;;;;5001490;28;20055;-68
2021/09/02 05:55:02;;;;;;;6.93;1.98;;;16.40;99.90;;;;;;5001548;28;20430;-68
2021/09/02 05:57:28;;;;;;;5.13;1.95;;;16.40;99.90;;;;;;5000736;28;20042;-68
2021/09/02 05:59:53;;;;;;;3.85;1.50;;;16.50;99.90;;;;;;5000146;28;20039;-69
2021/09/02 06:02:19;;;;;;;8.70;2.03;;;16.50;99.90;;;;;;5001499;28;20606;-69
2021/09/02 06:04:45;;;;;;;6.10;2.00;;;16.50;99.90;;;;;;4998057;28;20027;-68
2021/09/02 06:07:10;;;;;;;6.00;1.90;;;16.60;99.90;;;;;;5001170;28;20038;-68
2021/09/02 06:09:36;;;;;;;5.43;1.67;;;16.60;99.90;;;;;;5001919;28;20045;-68
2021/09/02 06:12:02;;;;;;;4.72;1.45;;;16.60;99.90;;;;;;4985761;28;20038;-68
2021/09/02 06:14:28;;;;;;;6.80;1.85;;;16.70;99.90;;;;;;5000777;28;20542;-69
2021/09/02 06:16:53;;;;;;;6.55;2.13;;;16.70;99.90;;;;;;5003083;28;20060;-68
2021/09/02 06:19:19;;;;;;;3.78;1.60;;;16.80;99.90;;;;;;5002377;28;20046;-68
2021/09/02 06:21:44;;;;;;;5.90;2.13;;;16.80;99.90;;;;;;5004620;28;20137;-69
2021/09/02 06:24:10;;;;;;;6.53;1.60;;;16.80;99.90;;;;;;4983414;28;20027;-68
2021/09/02 06:26:35;;;;;;;3.95;1.50;;;16.90;99.90;;;;;;5002825;28;20034;-68
2021/09/02 06:29:01;;;;;;;4.60;1.60;;;16.90;99.90;;;;;;5002328;28;20060;-68
2021/09/02 06:31:26;;;;;;;3.65;1.30;;;17.00;99.90;;;;;;5002865;28;20535;-68
2021/09/02 06:33:52;;;;;;;5.93;2.33;;;17.10;99.90;;;;;;5004739;28;20076;-69
2021/09/02 06:36:20;;;;;;;3.85;1.65;;;17.00;99.90;;;;;;5003330;28;20030;-68
2021/09/02 06:38:45;;;;;;;8.95;2.33;;;17.10;99.90;;;;;;5001661;28;20037;-68
2021/09/02 06:41:11;;;;;;;8.48;2.22;;;17.10;99.90;;;;;;5006208;28;20034;-68
2021/09/02 06:43:37;;;;;;;3.92;1.73;;;17.20;99.90;;;;;;4986976;28;20160;-69
2021/09/02 06:46:02;;;;;;;6.28;2.25;;;17.30;99.90;;;;;;5001127;28;20042;-68
2021/09/02 06:48:28;;;;;;;4.35;1.80;;;17.30;99.90;;;;;;5003097;28;20034;-68
2021/09/02 06:50:53;;;;;;;5.78;1.65;;;17.50;99.90;;;;;;5003056;28;20042;-68
2021/09/02 06:53:19;;;;;;;8.55;2.08;;;17.50;99.90;;;;;;5001390;28;20040;-68
2021/09/02 06:55:45;;;;;;;11.27;1.83;;;17.60;99.90;;;;;;5003869;28;20438;-68
2021/09/02 06:58:10;;;;;;;3.83;1.50;;;17.60;99.90;;;;;;5004453;28;20034;-68
2021/09/02 07:00:36;;;;;;;6.07;1.98;;;17.70;99.90;;;;;;5000373;28;20510;-68
2021/09/02 07:03:01;;;;;;;8.23;1.67;;;17.70;99.90;;;;;;5001120;28;20042;-68
2021/09/02 07:05:27;;;;;;;8.90;1.95;;;17.90;99.90;;;;;;5002741;28;20509;-68
2021/09/02 07:07:54;;;;;;;4.75;1.92;;;17.90;99.90;;;;;;5003011;28;20038;-68
2021/09/02 07:10:20;;;;;;;5.53;2.00;;;18.00;99.90;;;;;;5004519;28;20482;-68
2021/09/02 07:12:45;;;;;;;6.90;1.65;;;18.10;99.90;;;;;;5007512;28;20424;-68
2021/09/02 07:15:11;;;;;;;8.88;2.33;;;18.20;99.90;;;;;;5003000;28;20034;-68
2021/09/02 07:17:37;;;;;;;8.00;2.05;;;18.30;99.90;;;;;;5005165;28;20080;-69
2021/09/02 07:20:03;;;;;;;3.63;1.95;;;18.40;99.90;;;;;;5000837;28;20035;-68
2021/09/02 07:22:29;;;;;;;7.72;2.45;;;18.50;99.90;;;;;;5002922;28;20561;-69
2021/09/02 07:24:55;;;;;;;4.28;1.83;;;18.60;99.90;;;;;;5001555;28;20038;-68
2021/09/02 07:27:20;;;;;;;4.93;1.90;;;18.60;99.90;;;;;;4999991;28;20033;-69
2021/09/02 07:29:46;;;;;;;4.97;1.73;;;18.50;99.90;;;;;;5003069;28;20061;-69
2021/09/02 07:32:11;;;;;;;4.43;2.00;;;18.60;99.90;;;;;;4982462;28;20133;-69
2021/09/02 07:34:37;;;;;;;5.78;1.58;;;18.50;99.90;;;;;;5003567;28;20037;-69
2021/09/02 07:37:03;;;;;;;7.80;2.10;;;18.40;99.90;;;;;;5000271;28;20092;-68
2021/09/02 07:39:28;;;;;;;6.85;2.45;;;18.30;99.90;;;;;;5004782;28;20677;-68
2021/09/02 07:41:54;;;;;;;6.63;2.40;;;18.40;99.90;;;;;;5001722;28;20038;-68
2021/09/02 07:44:20;;;;;;;6.30;1.73;;;18.40;99.90;;;;;;5000702;28;20045;-69
2021/09/02 07:46:45;;;;;;;8.98;2.17;;;18.50;99.90;;;;;;5002854;28;20433;-68
2021/09/02 07:49:11;;;;;;;5.93;1.70;;;18.60;99.90;;;;;;5002983;28;20034;-69
2021/09/02 07:51:36;;;;;;;6.25;1.92;;;18.70;99.90;;;;;;4999758;28;20034;-68
2021/09/02 07:54:02;;;;;;;5.55;1.80;;;18.80;99.90;;;;;;4999713;28;20030;-69
2021/09/02 07:56:28;;;;;;;7.10;2.58;;;18.90;99.90;;;;;;5001713;28;20041;-69
2021/09/02 07:58:53;;;;;;;3.42;1.27;;;18.90;99.90;;;;;;5006917;28;20803;-69
2021/09/02 08:01:22;;;;;;;4.15;1.88;;;19.10;99.90;;;;;;5001183;28;20112;-70
2021/09/02 08:03:48;;;;;;;7.50;1.92;;;19.10;99.90;;;;;;5000159;28;20026;-69
2021/09/02 08:06:14;;;;;;;5.47;1.75;;;19.10;99.90;;;;;;5005615;28;20037;-69
2021/09/02 08:08:40;;;;;;;6.38;2.17;;;19.10;99.90;;;;;;5000835;28;20034;-68
2021/09/02 08:11:05;;;;;;;6.22;1.80;;;19.10;99.90;;;;;;5000900;28;20121;-69
2021/09/02 08:13:31;;;;;;;9.77;2.53;;;19.10;99.90;;;;;;5001604;28;20037;-69
2021/09/02 08:15:57;;;;;;;6.80;1.83;;;19.00;99.90;;;;;;4996854;28;20030;-68
2021/09/02 08:18:23;;;;;;;4.60;2.00;;;19.00;99.90;;;;;;5001401;28;20037;-69
2021/09/02 08:20:48;;;;;;;8.18;1.98;;;19.10;99.90;;;;;;5002845;28;20049;-69
2021/09/02 08:23:14;;;;;;;10.27;1.80;;;19.20;99.90;;;;;;5000293;28;20490;-69
2021/09/02 08:25:39;;;;;;;7.00;2.35;;;19.40;99.90;;;;;;4999206;28;20039;-68
2021/09/02 08:28:05;;;;;;;5.03;1.98;;;19.40;99.90;;;;;;5000421;28;20035;-68
2021/09/02 08:30:31;;;;;;;5.80;2.00;;;19.30;99.90;;;;;;5000172;28;20030;-68
2021/09/02 08:32:57;;;;;;;6.45;2.25;;;19.20;99.90;;;;;;5000008;28;20037;-68
2021/09/02 08:35:30;;;;;;;10.05;2.10;;;19.30;99.90;;;;;;5000566;28;20186;-68
2021/09/02 08:37:59;;;;;;;5.43;2.40;;;19.40;99.90;;;;;;5000808;28;20085;-68
2021/09/02 08:40:27;;;;;;;4.53;1.75;;;19.40;99.90;;;;;;5002113;28;20042;-69
2021/09/02 08:42:56;;;;;;;5.93;1.80;;;19.50;99.90;;;;;;5000593;28;20033;-68
2021/09/02 08:45:23;;;;;;;9.13;2.08;;;19.50;99.90;;;;;;4999829;28;20655;-68
2021/09/02 08:47:49;;;;;;;9.13;2.38;;;19.60;99.90;;;;;;5001033;28;20037;-69
2021/09/02 08:50:20;;;;;;;6.68;1.80;;;19.60;99.90;;;;;;4998690;28;20029;-69
2021/09/02 08:52:46;;;;;;;;;;;19.60;99.90;;;;;;4982283;28;20044;-68
2021/09/02 08:55:11;;;;;;;5.15;2.00;;;19.50;99.90;;;;;;5000303;28;19918;-69
2021/09/02 08:57:37;;;;;;;5.45;2.03;;;19.50;99.90;;;;;;4997207;28;20034;-69
2021/09/02 09:00:04;;;;;;;5.18;1.70;;;19.50;99.90;;;;;;5004504;28;20749;-69
2021/09/02 09:02:31;;;;;;;5.63;1.85;;;19.60;99.90;;;;;;5000807;28;20037;-68
2021/09/02 09:05:00;;;;;;;6.97;2.05;;;19.50;99.90;;;;;;4999018;28;20266;-69
2021/09/02 09:07:36;;;;;;;8.75;2.95;;;19.60;99.90;;;;;;4998949;28;20046;-68
2021/09/02 09:10:08;;;;;;;6.05;2.28;;;19.70;99.90;;;;;;5000160;28;20037;-68
2021/09/02 09:12:39;;;;;;;9.80;2.30;;;19.70;99.90;;;;;;5000822;28;20066;-68
2021/09/02 09:15:07;;;;;;;6.65;2.00;;;19.70;99.90;;;;;;4998555;28;20101;-68
2021/09/02 09:17:33;;;;;;;4.65;1.98;;;19.70;99.90;;;;;;4999815;28;20034;-68
2021/09/02 09:19:59;;;;;;;6.80;2.10;;;19.70;99.90;;;;;;4999175;28;20041;-69
2021/09/02 09:22:29;;;;;;;4.45;1.88;;;19.90;99.90;;;;;;4997482;28;20065;-69
2021/09/02 09:24:55;;;;;;;7.70;1.98;;;20.00;99.90;;;;;;4998218;28;20503;-69
2021/09/02 09:27:38;;;;;;;6.28;1.90;;;20.00;99.90;;;;;;4982542;28;20037;-69
2021/09/02 09:30:09;;;;;;;5.78;2.58;;;20.00;99.90;;;;;;5003014;28;20191;-69
2021/09/02 09:32:50;;;;;;;8.73;2.65;;;20.10;99.90;;;;;;4981144;28;20048;-68
2021/09/02 09:35:18;;;;;;;7.43;2.67;;;20.00;99.90;;;;;;5001206;28;20590;-69
2021/09/02 09:37:45;;;;;;;7.15;2.58;;;20.00;99.90;;;;;;4999983;28;20405;-69
2021/09/02 09:40:24;;;;;;;7.47;2.42;;;20.00;99.90;;;;;;4980043;28;20035;-69
2021/09/02 09:42:57;;;;;;;6.18;2.40;;;20.00;99.90;;;;;;4995158;28;20043;-69
2021/09/02 09:45:45;;;;;;;6.20;2.10;;;20.10;99.90;;;;;;5001303;28;20037;-69
2021/09/02 09:48:17;;;;;;;7.75;2.75;;;20.10;99.90;;;;;;5004475;28;20117;-69
2021/09/02 09:50:46;;;;;;;7.50;2.58;;;20.20;99.90;;;;;;5001800;28;20034;-69
2021/09/02 09:53:32;;;;;;;5.75;2.67;;;20.40;99.90;;;;;;5000050;28;20037;-69
2021/09/02 09:55:58;;;;;;;7.07;2.20;;;20.70;99.90;;;;;;5004619;28;20065;-69
2021/09/02 09:58:26;;;;;;;8.25;2.58;;;21.00;99.90;;;;;;5007266;28;20418;-69
2021/09/02 10:01:03;;;;;;;6.53;2.88;;;21.40;99.90;;;;;;5001058;28;20045;-69
2021/09/02 10:03:30;;;;;;;8.65;2.25;;;21.70;99.90;;;;;;4999919;28;20030;-69
2021/09/02 10:06:02;;;;;;;8.35;2.00;;;21.60;98.10;;;;;;5003775;28;20121;-69
2021/09/02 10:08:31;;;;;;;9.23;2.05;;;21.40;98.30;;;;;;5000983;28;20085;-69
2021/09/02 10:10:57;;;;;;;5.00;1.90;;;21.20;99.00;;;;;;5004351;28;20045;-69
2021/09/02 10:13:23;;;;;;;6.38;2.25;;;20.80;98.60;;;;;;5001268;28;20277;-69
2021/09/02 10:15:48;;;;;;;5.68;2.35;;;20.70;99.50;;;;;;5002995;28;20062;-70
2021/09/02 10:18:14;;;;;;;3.75;1.80;;;20.50;99.90;;;;;;5002383;28;20057;-70
2021/09/02 10:20:41;;;;;;;4.38;1.67;;;20.60;98.60;;;;;;5002133;28;20513;-69
2021/09/02 10:23:07;;;;;;;4.25;1.90;;;20.70;99.50;;;;;;5003401;28;20041;-69
2021/09/02 10:25:34;;;;;;;6.90;2.40;;;21.00;98.70;;;;;;5005560;28;20037;-70
2021/09/02 10:28:11;;;;;;;3.60;1.63;;;21.30;97.50;;;;;;5003619;28;20498;-69
2021/09/02 10:30:41;;;;;;;3.85;1.65;;;21.30;98.30;;;;;;5002143;28;20042;-68
2021/09/02 10:33:35;;;;;;;4.65;1.70;;;21.30;98.50;;;;;;5001887;28;20033;-69
2021/09/02 10:36:10;;;;;;;4.40;1.80;;;21.30;97.90;;;;;;5002474;28;20061;-69
2021/09/02 10:38:45;;;;;;;5.28;1.85;;;21.40;98.50;;;;;;5004882;28;20512;-69
2021/09/02 10:41:12;;;;;;;5.35;1.73;;;21.70;98.50;;;;;;5004570;28;20092;-69
2021/09/02 10:43:48;;;;;;;7.72;2.15;;;21.70;97.70;;;;;;5008740;28;20038;-69
2021/09/02 10:46:43;;;;;;;5.25;1.92;;;21.80;96.60;;;;;;5001168;28;20030;-69
2021/09/02 10:49:24;;;;;;;5.75;2.05;;;21.50;98.80;;;;;;5004441;28;20060;-69
2021/09/02 10:51:53;;;;;;;4.63;2.05;;;21.60;99.90;;;;;;5004977;28;20514;-69
2021/09/02 10:54:28;;;;;;;9.48;2.30;;;21.70;98.50;;;;;;5002646;28;20050;-69
2021/09/02 10:57:06;;;;;;;3.38;2.25;;;21.70;97.60;;;;;;5007651;28;20141;-68
2021/09/02 10:59:38;;;;;;;6.35;1.77;;;21.60;97.10;;;;;;5004797;28;20046;-69
2021/09/02 11:02:10;;;;;;;6.63;2.00;;;21.80;97.20;;;;;;5003252;28;20040;-68
2021/09/02 11:04:38;;;;;;;6.53;2.95;;;21.90;96.50;;;;;;5002137;28;20026;-69
2021/09/02 11:07:05;;;;;;;6.78;2.83;;;21.70;96.20;;;;;;5000827;28;20490;-69
2021/09/02 11:09:32;;;;;;;5.20;2.15;;;21.50;96.90;;;;;;5002963;28;20113;-69
2021/09/02 11:11:59;;;;;;;4.30;1.83;;;21.20;97.40;;;;;;4999640;28;20584;-69
2021/09/02 11:14:25;;;;;;;4.57;2.08;;;21.00;97.80;;;;;;4998604;28;20113;-69
2021/09/02 11:16:51;;;;;;;6.07;3.08;;;20.90;99.50;;;;;;4981747;28;20166;-69
2021/09/02 11:19:33;;;;;;;5.00;1.98;;;20.90;98.70;;;;;;5000557;28;20125;-69
2021/09/02 11:22:13;;;;;;;5.03;2.13;;;20.80;98.40;;;;;;4999177;28;20108;-69
2021/09/02 11:24:46;;;;;;;9.32;1.95;;;20.80;98.70;;;;;;5001111;28;20038;-69
2021/09/02 11:27:33;;;;;;;9.00;1.95;;;20.70;99.60;;;;;;5001483;28;20041;-69
2021/09/02 11:30:17;;;;;;;5.75;2.00;;;20.80;99.50;;;;;;4999548;28;20061;-69
2021/09/02 11:32:50;;;;;;;5.80;2.40;;;20.70;99.30;;;;;;5000593;28;20069;-69
2021/09/02 11:35:16;;;;;;;15.40;2.45;;;20.80;99.30;;;;;;5002280;28;20027;-70
2021/09/02 11:37:44;;;;;;;10.32;2.28;;;20.80;98.90;;;;;;5000467;28;20133;-69
2021/09/02 11:40:28;;;;;;;5.53;1.95;;;20.80;98.20;;;;;;4989473;28;20036;-69
2021/09/02 11:42:55;;;;;;;3.55;1.70;;;20.70;98.90;;;;;;4999164;28;20031;-69
2021/09/02 11:45:22;;;;;;;4.45;1.85;;;20.70;98.90;;;;;;5002718;28;20029;-69
2021/09/02 11:47:51;;;;;;;6.70;2.08;;;20.60;99.50;;;;;;4999194;28;20465;-69
2021/09/02 11:50:18;;;;;;;6.10;1.77;;;20.60;99.90;;;;;;5002153;28;20044;-67
2021/09/02 11:52:47;;;;;;;3.88;1.80;;;20.70;98.70;;;;;;4999342;28;20038;-69
2021/09/02 11:55:23;;;;;;;5.15;2.00;;;20.70;98.30;;;;;;5001555;28;20067;-68
2021/09/02 11:57:57;;;;;;;4.97;1.88;;;20.70;99.10;;;;;;5000610;28;20042;-68
2021/09/02 12:00:23;;;;;;;6.85;2.97;;;20.80;98.70;;;;;;4999398;28;20058;-69
2021/09/02 12:02:54;;;;;;;5.70;2.47;;;20.60;99.80;;;;;;5001628;28;20636;-68
2021/09/02 12:05:21;;;;;;;7.30;2.58;;;20.70;98.50;;;;;;4980678;28;20045;-68
2021/09/02 12:07:52;;;;;;;7.03;2.28;;;20.60;98.10;;;;;;4998645;28;20399;-68
2021/09/02 12:10:19;;;;;;;5.40;2.42;;;20.40;98.20;;;;;;5002410;28;20029;-68
2021/09/02 12:12:45;;;;;;;5.03;1.77;;;20.40;99.10;;;;;;4999387;28;20117;-69
2021/09/02 12:15:28;;;;;;;7.72;2.53;;;20.40;98.70;;;;;;4983816;28;20042;-68
2021/09/02 12:18:09;;;;;;;11.77;2.55;;;20.30;98.90;;;;;;4998366;28;20126;-69
2021/09/02 12:20:35;;;;;;;;;;;20.20;99.20;;;;;;5000986;28;20038;-68
2021/09/02 12:23:17;;;;;;;5.43;1.88;;;20.20;98.70;;;;;;5000663;28;19920;-67
2021/09/02 12:26:02;;;;;;;7.85;2.15;;;20.20;99.60;;;;;;5001192;28;20117;-68
2021/09/02 12:28:34;;;;;;;6.93;2.03;;;20.20;99.90;;;;;;4999085;28;20048;-68
2021/09/02 12:31:15;;;;;;;12.10;2.35;;;20.30;99.90;;;;;;5001478;28;20445;-68
2021/09/02 12:34:01;;;;;;;7.68;2.25;;;20.30;99.90;;;;;;5000969;28;20038;-69
2021/09/02 12:36:29;;;;;;;5.28;2.03;;;20.40;98.70;;;;;;4981174;28;20034;-68
2021/09/02 12:38:55;;;;;;;5.18;1.88;;;20.30;99.20;;;;;;5002084;28;20038;-68
2021/09/02 12:41:23;;;;;;;6.25;2.53;;;20.30;99.90;;;;;;5004326;28;20038;-69
2021/09/02 12:44:00;;;;;;;6.65;2.15;;;20.30;99.00;;;;;;5001870;28;20044;-69
2021/09/02 12:46:26;;;;;;;6.13;2.55;;;20.30;99.50;;;;;;4998555;28;20052;-66
2021/09/02 12:49:12;;;;;;;5.38;1.80;;;20.30;99.90;;;;;;5001892;28;20393;-67
2021/09/02 12:51:38;;;;;;;5.63;2.13;;;20.40;99.70;;;;;;4999993;28;20545;-68